Goldfield, Colorado
Current Conditions -  °F | °C
As of 9:56 PM on Thursday 30 Oct 2014 (Local Time) from KCWN Reporting Station
Clear Clear  
Wind Chill: 43°   Ceiling: Unl
Heat Index: 49°   Visibility: 10mi
Dew Point: 21°   Wind: 15mph
Humidity: 34%   Direction: 200°SSW
Pressure: 30.43"   Gusts: 22mph
Location:  38.6816°N, 105.071°W
Report Text: KCWN 310356Z AUTO 20013G19KT 10SM CLR 09/M06 A3043 RMK AO2 SLP277 T00921060
Loading
Personal Weather Stations






























Interactive Weather Map
Tropical Storm Tracking
New forecast layout! Learn more

10-Day Weather Forecast

Advertisements
Track Severe Weather on mobile